createdAt,value
2023-02-22T00:00:43.548Z,101574.75
2023-02-22T00:03:15.280Z,101570.84
2023-02-22T00:05:53.494Z,101565.53
2023-02-22T00:08:23.443Z,101564.88
2023-02-22T00:10:51.380Z,101557.59
2023-02-22T00:13:22.664Z,101563.53
2023-02-22T00:15:50.930Z,101556.81
2023-02-22T00:18:19.595Z,101553.81
2023-02-22T00:20:46.780Z,101551.63
2023-02-22T00:23:18.964Z,101554.94
2023-02-22T00:25:47.272Z,101548.41
2023-02-22T00:28:15.185Z,101550.06
2023-02-22T00:30:44.894Z,101555.00
2023-02-22T00:33:15.876Z,101552.97
2023-02-22T00:35:45.794Z,101550.97
2023-02-22T00:38:15.477Z,101544.81
2023-02-22T00:40:43.163Z,101546.66
2023-02-22T00:43:10.062Z,101551.97
2023-02-22T00:45:38.040Z,101548.41
2023-02-22T00:48:06.979Z,101545.84
2023-02-22T00:50:35.825Z,101541.28
2023-02-22T00:53:04.959Z,101538.00
2023-02-22T00:55:35.218Z,101539.19
2023-02-22T00:58:03.355Z,101535.53
2023-02-22T01:00:33.776Z,101534.06
2023-02-22T01:03:00.796Z,101531.63
2023-02-22T01:05:29.785Z,101523.81
2023-02-22T01:08:00.950Z,101524.03
2023-02-22T01:10:31.087Z,101525.41
2023-02-22T01:13:00.133Z,101519.44
2023-02-22T01:15:30.639Z,101517.97
2023-02-22T01:17:59.584Z,101519.16
2023-02-22T01:20:29.128Z,101527.69
2023-02-22T01:23:00.373Z,101517.19
2023-02-22T01:25:31.397Z,101518.19
2023-02-22T01:28:01.137Z,101524.69
2023-02-22T01:30:33.100Z,101515.09
2023-02-22T01:33:02.190Z,101513.91
2023-02-22T01:35:32.828Z,101506.94
2023-02-22T01:38:01.434Z,101504.50
2023-02-22T01:40:31.598Z,101497.53
2023-02-22T01:43:03.702Z,101492.69
2023-02-22T01:46:01.353Z,101490.75
2023-02-22T01:48:39.905Z,101492.22
2023-02-22T01:51:12.222Z,101490.22
2023-02-22T01:53:49.175Z,101489.84
2023-02-22T01:56:18.812Z,101489.66
2023-02-22T01:58:54.181Z,101485.72
2023-02-22T02:01:23.717Z,101482.44
2023-02-22T02:03:58.131Z,101482.81
2023-02-22T02:06:27.846Z,101481.19
2023-02-22T02:09:04.364Z,101484.19
2023-02-22T02:11:32.369Z,101480.91
2023-02-22T02:13:59.646Z,101476.81
2023-02-22T02:16:38.857Z,101474.16
2023-02-22T02:19:16.854Z,101474.31
2023-02-22T02:22:16.119Z,101473.59
2023-02-22T02:25:39.794Z,101473.78
2023-02-22T02:28:51.926Z,101470.94
2023-02-22T02:32:09.695Z,101465.56
2023-02-22T02:34:49.593Z,101469.84
2023-02-22T02:37:28.062Z,101471.50
2023-02-22T02:40:06.235Z,101468.28
2023-02-22T02:42:41.234Z,101456.50
2023-02-22T02:45:16.002Z,101450.03
2023-02-22T02:47:51.873Z,101458.41
2023-02-22T02:50:25.053Z,101450.09
2023-02-22T02:52:57.047Z,101448.19
2023-02-22T02:55:24.879Z,101441.44
2023-02-22T02:57:52.502Z,101446.75
2023-02-22T03:00:28.676Z,101443.25
2023-02-22T03:03:14.555Z,101438.59
2023-02-22T03:06:11.390Z,101433.03
2023-02-22T03:08:50.345Z,101440.13
2023-02-22T03:11:21.495Z,101436.31
2023-02-22T03:14:02.635Z,101429.38
2023-02-22T03:16:45.883Z,101422.63
2023-02-22T03:19:27.990Z,101419.13
2023-02-22T03:22:03.952Z,101421.97
2023-02-22T03:24:37.468Z,101416.06
2023-02-22T03:27:09.864Z,101415.16
2023-02-22T03:29:43.893Z,101409.00
2023-02-22T03:32:16.531Z,101414.31
2023-02-22T03:34:53.045Z,101408.38
2023-02-22T03:37:26.800Z,101410.47
2023-02-22T03:39:59.569Z,101414.31
2023-02-22T03:42:31.945Z,101416.34
2023-02-22T03:45:04.998Z,101398.31
2023-02-22T03:47:39.975Z,101410.13
2023-02-22T03:50:15.226Z,101407.19
2023-02-22T03:52:44.497Z,101404.28
2023-02-22T03:55:13.514Z,101411.94
2023-02-22T03:57:44.994Z,101413.56
2023-02-22T04:00:20.088Z,101417.88
2023-02-22T04:02:47.077Z,101408.28
2023-02-22T04:05:15.945Z,101411.13
2023-02-22T04:07:43.655Z,101405.38
2023-02-22T04:10:11.802Z,101411.03
2023-02-22T04:12:39.088Z,101417.47
2023-02-22T04:15:08.380Z,101414.53
2023-02-22T04:17:35.324Z,101413.28
2023-02-22T04:20:03.719Z,101412.16
2023-02-22T04:22:31.902Z,101407.41
2023-02-22T04:24:58.865Z,101408.94
2023-02-22T04:27:25.736Z,101412.97
2023-02-22T04:29:52.988Z,101404.75
2023-02-22T04:32:20.022Z,101407.56
2023-02-22T04:34:46.939Z,101409.09
2023-02-22T04:37:13.849Z,101405.19
2023-02-22T04:39:42.176Z,101405.53
2023-02-22T04:42:09.147Z,101405.88
2023-02-22T04:44:36.062Z,101404.25
2023-02-22T04:47:03.195Z,101402.78
2023-02-22T04:49:30.083Z,101406.59
2023-02-22T04:51:56.993Z,101398.03
2023-02-22T04:54:23.929Z,101402.69
2023-02-22T04:56:52.293Z,101389.81
2023-02-22T04:59:19.694Z,101396.09
2023-02-22T05:01:46.886Z,101398.44
2023-02-22T05:04:13.876Z,101389.41
2023-02-22T05:06:41.034Z,101401.16
2023-02-22T05:09:07.999Z,101399.84
2023-02-22T05:11:34.871Z,101394.94
2023-02-22T05:14:03.079Z,101396.25
2023-02-22T05:16:30.115Z,101391.50
2023-02-22T05:18:57.067Z,101389.06
2023-02-22T05:21:24.068Z,101390.03
2023-02-22T05:23:51.081Z,101384.47
2023-02-22T05:26:18.922Z,101376.59
2023-02-22T05:28:45.855Z,101377.94
2023-02-22T05:31:14.462Z,101376.81
2023-02-22T05:33:41.557Z,101382.28
2023-02-22T05:36:09.695Z,101369.09
2023-02-22T05:38:43.197Z,101377.66
2023-02-22T05:41:12.036Z,101376.00
2023-02-22T05:43:39.736Z,101362.78
2023-02-22T05:46:07.317Z,101364.59
2023-02-22T05:48:35.615Z,101362.13
2023-02-22T05:51:03.789Z,101356.34
2023-02-22T05:53:30.742Z,101359.50
2023-02-22T05:55:57.862Z,101348.94
2023-02-22T05:58:25.951Z,101358.50
2023-02-22T06:00:52.991Z,101346.97
2023-02-22T06:03:19.887Z,101345.94
2023-02-22T06:05:48.605Z,101344.31
2023-02-22T06:08:15.660Z,101341.50
2023-02-22T06:10:42.535Z,101342.31
2023-02-22T06:13:09.804Z,101350.25
2023-02-22T06:15:36.850Z,101347.59
2023-02-22T06:18:04.213Z,101348.59
2023-02-22T06:20:33.291Z,101343.66
2023-02-22T06:23:01.841Z,101343.66
2023-02-22T06:25:31.523Z,101342.84
2023-02-22T06:27:59.206Z,101341.50
2023-02-22T06:30:28.775Z,101332.09
2023-02-22T06:32:55.905Z,101338.31
2023-02-22T06:35:23.634Z,101339.25
2023-02-22T06:37:50.976Z,101336.53
2023-02-22T06:40:19.652Z,101336.66
2023-02-22T06:42:48.934Z,101334.13
2023-02-22T06:45:17.941Z,101336.03
2023-02-22T06:47:45.255Z,101330.19
2023-02-22T06:50:21.656Z,101326.22
2023-02-22T06:52:48.710Z,101331.59
2023-02-22T06:55:23.603Z,101328.59
2023-02-22T06:57:51.686Z,101330.34
2023-02-22T07:00:24.472Z,101334.09
2023-02-22T07:02:52.543Z,101331.72
2023-02-22T07:05:23.178Z,101329.38
2023-02-22T07:07:53.789Z,101331.81
2023-02-22T07:10:29.586Z,101325.34
2023-02-22T07:12:56.677Z,101326.25
2023-02-22T07:15:26.022Z,101330.84
2023-02-22T07:17:53.022Z,101329.19
2023-02-22T07:20:22.335Z,101328.81
2023-02-22T07:22:50.746Z,101332.09
2023-02-22T07:25:18.676Z,101338.66
2023-02-22T07:27:47.287Z,101340.31
2023-02-22T07:30:20.402Z,101335.75
2023-02-22T07:32:47.849Z,101332.81
2023-02-22T07:35:17.528Z,101330.00
2023-02-22T07:37:44.697Z,101329.81
2023-02-22T07:40:12.535Z,101328.97
2023-02-22T07:42:54.242Z,101314.56
2023-02-22T07:45:22.755Z,101324.53
2023-02-22T07:47:49.830Z,101326.56
2023-02-22T07:50:18.846Z,101323.16
2023-02-22T07:52:46.892Z,101319.41
2023-02-22T07:55:16.645Z,101320.13
2023-02-22T07:57:45.881Z,101317.63
2023-02-22T08:00:23.634Z,101319.28
2023-02-22T08:02:50.858Z,101319.38
2023-02-22T08:05:19.759Z,101312.44
2023-02-22T08:07:46.745Z,101314.00
2023-02-22T08:10:18.017Z,101315.25
2023-02-22T08:12:45.345Z,101319.63
2023-02-22T08:15:20.112Z,101320.72
2023-02-22T08:17:47.196Z,101323.25
2023-02-22T08:20:14.774Z,101314.13
2023-02-22T08:22:44.037Z,101315.34
2023-02-22T08:25:11.665Z,101309.59
2023-02-22T08:27:38.886Z,101303.63
2023-02-22T08:30:07.575Z,101304.63
2023-02-22T08:32:35.923Z,101305.53
2023-02-22T08:35:03.352Z,101306.44
2023-02-22T08:37:30.311Z,101297.03
2023-02-22T08:39:57.199Z,101298.69
2023-02-22T08:42:24.491Z,101302.16
2023-02-22T08:44:51.483Z,101305.44
2023-02-22T08:47:18.463Z,101298.41
2023-02-22T08:49:46.721Z,101298.66
2023-02-22T08:52:13.573Z,101298.16
2023-02-22T08:54:40.436Z,101303.53
2023-02-22T08:57:07.626Z,101289.34
2023-02-22T08:59:34.527Z,101292.72
2023-02-22T09:02:02.706Z,101288.00
2023-02-22T09:04:29.701Z,101288.53
2023-02-22T09:06:57.935Z,101285.00
2023-02-22T09:09:25.035Z,101286.97
2023-02-22T09:11:53.188Z,101286.59
2023-02-22T09:14:20.256Z,101285.63
2023-02-22T09:16:47.277Z,101277.94
2023-02-22T09:19:14.533Z,101279.47
2023-02-22T09:21:41.536Z,101278.91
2023-02-22T09:24:09.768Z,101285.28
2023-02-22T09:26:39.342Z,101283.13
2023-02-22T09:29:09.725Z,101279.09
2023-02-22T09:31:38.496Z,101282.88
2023-02-22T09:34:13.533Z,101275.78
2023-02-22T09:36:41.230Z,101277.66
2023-02-22T09:39:11.255Z,101274.31
2023-02-22T09:41:50.990Z,101269.63
2023-02-22T09:44:29.174Z,101267.69
2023-02-22T09:46:58.684Z,101278.50
2023-02-22T09:49:34.190Z,101272.44
2023-02-22T09:52:08.067Z,101286.69
2023-02-22T09:54:46.147Z,101276.06
2023-02-22T09:57:20.055Z,101272.16
2023-02-22T10:00:00.954Z,101272.16
2023-02-22T10:02:34.538Z,101272.50
2023-02-22T10:05:13.690Z,101266.63
2023-02-22T10:07:51.338Z,101261.03
2023-02-22T10:10:22.803Z,101252.69
2023-02-22T10:13:02.461Z,101250.69
2023-02-22T10:15:51.402Z,101251.31
2023-02-22T10:18:50.230Z,101246.78
2023-02-22T10:21:49.459Z,101242.81
2023-02-22T10:24:39.525Z,101236.41
2023-02-22T10:27:18.816Z,101238.66
2023-02-22T10:29:52.821Z,101237.25
2023-02-22T10:32:29.128Z,101238.06
2023-02-22T10:34:59.868Z,101238.44
2023-02-22T10:37:30.624Z,101239.19
2023-02-22T10:40:12.457Z,101235.81
2023-02-22T10:42:40.665Z,101231.97
2023-02-22T10:45:23.566Z,101236.69
2023-02-22T10:47:54.023Z,101238.38
2023-02-22T10:50:22.400Z,101226.56
2023-02-22T10:52:49.619Z,101221.16
2023-02-22T10:55:17.257Z,101226.13
2023-02-22T10:57:50.814Z,101219.09
2023-02-22T11:00:26.314Z,101219.66
2023-02-22T11:02:57.264Z,101217.91
2023-02-22T11:05:36.692Z,101199.03
2023-02-22T11:08:28.025Z,101205.47
2023-02-22T11:10:58.670Z,101212.16
2023-02-22T11:13:31.539Z,101207.66
2023-02-22T11:16:03.054Z,101195.81
2023-02-22T11:18:34.090Z,101197.47
2023-02-22T11:21:05.664Z,101196.22
2023-02-22T11:23:33.310Z,101194.94
2023-02-22T11:26:11.260Z,101199.47
2023-02-22T11:28:49.118Z,101183.53
2023-02-22T11:31:21.367Z,101172.25
2023-02-22T11:36:40.469Z,101175.09
2023-02-22T11:39:24.399Z,101174.66
2023-02-22T11:41:51.792Z,101176.50
2023-02-22T11:44:26.709Z,101173.03
2023-02-22T11:46:57.702Z,101170.97
2023-02-22T11:49:34.024Z,101167.81
2023-02-22T11:52:26.055Z,101168.41
2023-02-22T11:55:32.598Z,101165.00
2023-02-22T11:58:29.992Z,101164.84
2023-02-22T12:01:08.136Z,101162.56
2023-02-22T12:04:01.641Z,101156.88
2023-02-22T12:06:44.867Z,101150.19
2023-02-22T12:09:19.083Z,101153.00
2023-02-22T12:11:59.646Z,101145.22
2023-02-22T12:14:38.679Z,101144.13
2023-02-22T12:17:26.429Z,101139.00
2023-02-22T12:20:01.847Z,101142.44
2023-02-22T12:22:34.467Z,101145.31
2023-02-22T12:25:09.783Z,101132.75
2023-02-22T12:27:44.067Z,101138.09
2023-02-22T12:30:20.683Z,101135.59
2023-02-22T12:32:53.420Z,101135.47
2023-02-22T12:35:24.906Z,101125.22
2023-02-22T12:38:04.517Z,101129.38
2023-02-22T12:40:39.946Z,101126.72
2023-02-22T12:43:16.884Z,101128.03
2023-02-22T12:45:50.370Z,101129.97
2023-02-22T12:48:35.506Z,101132.13
2023-02-22T12:51:19.245Z,101123.00
2023-02-22T12:53:58.174Z,101122.56
2023-02-22T12:56:33.787Z,101120.69
2023-02-22T12:59:10.092Z,101121.84
2023-02-22T13:01:42.082Z,101111.16
2023-02-22T13:04:20.420Z,101109.06
2023-02-22T13:07:09.861Z,101108.25
2023-02-22T13:10:23.293Z,101105.88
2023-02-22T13:13:03.886Z,101100.91
2023-02-22T13:15:45.678Z,101095.88
2023-02-22T13:18:21.536Z,101091.59
2023-02-22T13:21:02.503Z,101091.50
2023-02-22T13:23:46.322Z,101084.56
2023-02-22T13:26:24.442Z,101088.34
2023-02-22T13:29:00.435Z,101085.78
2023-02-22T13:32:00.550Z,101083.41
2023-02-22T13:34:50.877Z,101081.91
2023-02-22T13:38:01.315Z,101083.38
2023-02-22T13:40:55.681Z,101086.66
2023-02-22T13:44:37.693Z,101078.81
2023-02-22T13:48:00.455Z,101075.72
2023-02-22T13:50:51.238Z,101080.13
2023-02-22T13:53:26.152Z,101081.81
2023-02-22T13:56:00.605Z,101086.13
2023-02-22T13:58:27.899Z,101083.47
2023-02-22T14:00:58.153Z,101079.38
2023-02-22T14:03:37.584Z,101076.56
2023-02-22T14:06:06.310Z,101071.75
2023-02-22T14:08:45.813Z,101071.06
2023-02-22T14:11:43.017Z,101075.75
2023-02-22T14:14:17.712Z,101070.75
2023-02-22T14:17:04.970Z,101062.84
2023-02-22T14:19:32.216Z,101070.03
2023-02-22T14:22:02.471Z,101072.94
2023-02-22T14:24:43.714Z,101061.28
2023-02-22T14:27:13.220Z,101066.94
2023-02-22T14:29:53.563Z,101064.91
2023-02-22T14:32:30.484Z,101068.09
2023-02-22T14:35:00.701Z,101065.72
2023-02-22T14:37:33.727Z,101052.97
2023-02-22T14:40:13.406Z,101058.13
2023-02-22T14:42:48.059Z,101057.69
2023-02-22T14:45:24.770Z,101055.63
2023-02-22T14:48:04.068Z,101042.00
2023-02-22T14:50:44.214Z,101041.41
2023-02-22T14:53:25.987Z,101038.22
2023-02-22T14:56:02.389Z,101035.38
2023-02-22T14:58:38.138Z,101039.00
2023-02-22T15:01:31.230Z,101033.53
2023-02-22T15:04:18.960Z,101030.03
2023-02-22T15:06:46.824Z,101034.59
2023-02-22T15:09:24.690Z,101044.25
2023-02-22T15:12:12.967Z,101038.75
2023-02-22T15:14:41.710Z,101035.94
2023-02-22T15:17:18.080Z,101036.81
2023-02-22T15:19:50.795Z,101035.38
2023-02-22T15:22:25.130Z,101031.47
2023-02-22T15:25:00.324Z,101036.81
2023-02-22T15:27:29.417Z,101033.53
2023-02-22T15:30:05.007Z,101030.72
2023-02-22T15:32:36.570Z,101030.53
2023-02-22T15:35:16.600Z,101029.19
2023-02-22T15:37:44.623Z,101026.75
2023-02-22T15:40:16.237Z,101033.31
2023-02-22T15:42:48.458Z,101037.59
2023-02-22T15:45:20.105Z,101039.00
2023-02-22T15:47:49.467Z,101033.75
2023-02-22T15:50:25.760Z,101036.63
2023-02-22T15:52:58.181Z,101039.50
2023-02-22T15:55:29.036Z,101038.06
2023-02-22T15:58:07.602Z,101036.66
2023-02-22T16:00:38.712Z,101045.25
2023-02-22T16:03:09.922Z,101045.69
2023-02-22T16:05:42.181Z,101045.94
2023-02-22T16:08:17.808Z,101042.91
2023-02-22T16:10:58.341Z,101036.53
2023-02-22T16:13:32.431Z,101039.00
2023-02-22T16:16:03.088Z,101040.00
2023-02-22T16:18:34.375Z,101049.03
2023-02-22T16:21:06.282Z,101051.06
2023-02-22T16:23:45.358Z,101060.09
2023-02-22T16:26:23.730Z,101044.56
2023-02-22T16:28:56.036Z,101047.63
2023-02-22T16:31:25.638Z,101048.69
2023-02-22T16:33:54.040Z,101049.97
2023-02-22T16:36:36.903Z,101047.13
2023-02-22T16:39:07.078Z,101041.56
2023-02-22T16:41:34.317Z,101046.28
2023-02-22T16:44:03.084Z,101046.72
2023-02-22T16:46:30.113Z,101052.44
2023-02-22T16:49:03.175Z,101054.09
2023-02-22T16:51:40.726Z,101051.44
2023-02-22T16:54:13.009Z,101057.34
2023-02-22T16:56:40.670Z,101051.22
2023-02-22T16:59:14.710Z,101054.50
2023-02-22T17:01:42.315Z,101050.66
2023-02-22T17:04:15.831Z,101043.47
2023-02-22T17:06:42.738Z,101046.78
2023-02-22T17:09:10.131Z,101053.78
2023-02-22T17:11:37.761Z,101055.81
2023-02-22T17:14:05.804Z,101056.25
2023-02-22T17:16:34.082Z,101061.16
2023-02-22T17:19:01.052Z,101060.31
2023-02-22T17:21:27.931Z,101065.66
2023-02-22T17:23:54.973Z,101065.47
2023-02-22T17:26:22.180Z,101068.91
2023-02-22T17:28:49.159Z,101063.59
2023-02-22T17:31:23.971Z,101067.28
2023-02-22T17:33:52.646Z,101063.59
2023-02-22T17:36:20.664Z,101068.91
2023-02-22T17:38:50.210Z,101077.53
2023-02-22T17:41:17.349Z,101072.22
2023-02-22T17:43:44.268Z,101079.13
2023-02-22T17:46:11.356Z,101072.81
2023-02-22T17:48:39.253Z,101084.28
2023-02-22T17:51:10.614Z,101080.78
2023-02-22T17:53:39.088Z,101082.41
2023-02-22T17:56:07.680Z,101080.78
2023-02-22T17:58:35.066Z,101075.47
2023-02-22T18:01:02.683Z,101089.38
2023-02-22T18:03:30.274Z,101088.34
2023-02-22T18:06:00.952Z,101089.78
2023-02-22T18:08:33.755Z,101083.63
2023-02-22T18:11:05.175Z,101086.53
2023-02-22T18:13:32.083Z,101090.19
2023-02-22T18:16:04.836Z,101080.00
2023-02-22T18:18:32.430Z,101081.41
2023-02-22T18:20:59.799Z,101077.53
2023-02-22T18:23:31.371Z,101077.16
2023-02-22T18:26:10.515Z,101078.38
2023-02-22T18:28:38.693Z,101077.16
2023-02-22T18:31:08.540Z,101084.50
2023-02-22T18:33:35.708Z,101073.88
2023-02-22T18:36:03.005Z,101077.59
2023-02-22T18:38:31.570Z,101077.59
2023-02-22T18:41:00.818Z,101078.59
2023-02-22T18:43:28.846Z,101077.16
2023-02-22T18:46:05.895Z,101061.84
2023-02-22T18:48:33.072Z,101062.84
2023-02-22T18:51:00.145Z,101058.34
2023-02-22T18:53:28.258Z,101056.72
2023-02-22T18:55:56.612Z,101053.06
2023-02-22T18:58:23.613Z,101046.09
2023-02-22T19:00:54.833Z,101048.13
2023-02-22T19:03:21.911Z,101050.19
2023-02-22T19:05:52.109Z,101049.78
2023-02-22T19:08:19.197Z,101045.06
2023-02-22T19:10:49.399Z,101049.38
2023-02-22T19:13:18.819Z,101044.66
2023-02-22T19:15:45.716Z,101047.31
2023-02-22T19:18:12.940Z,101044.84
2023-02-22T19:23:10.129Z,101048.94
2023-02-22T19:25:40.950Z,101040.78
2023-02-22T19:28:07.890Z,101037.31
2023-02-22T19:30:36.091Z,101035.66
2023-02-22T19:33:04.783Z,101039.34
2023-02-22T19:35:31.767Z,101041.59
2023-02-22T19:37:58.781Z,101040.16
2023-02-22T19:40:26.472Z,101041.19
2023-02-22T19:42:57.174Z,101041.38
2023-02-22T19:45:24.880Z,101046.94
2023-02-22T19:47:55.803Z,101038.13
2023-02-22T19:50:22.962Z,101040.78
2023-02-22T19:52:50.079Z,101042.63
2023-02-22T19:55:17.044Z,101049.81
2023-02-22T19:57:49.962Z,101035.09
2023-02-22T20:00:24.309Z,101041.41
2023-02-22T20:03:05.657Z,101039.16
2023-02-22T20:05:33.440Z,101032.81
2023-02-22T20:08:00.468Z,101035.47
2023-02-22T20:10:27.700Z,101040.81
2023-02-22T20:12:54.644Z,101041.19
2023-02-22T20:15:23.904Z,101041.56
2023-02-22T20:17:51.369Z,101038.75
2023-02-22T20:20:21.289Z,101044.03
2023-02-22T20:22:48.199Z,101045.88
2023-02-22T20:25:15.566Z,101045.66
2023-02-22T20:27:42.531Z,101057.72
2023-02-22T20:30:11.469Z,101045.47
2023-02-22T20:32:39.146Z,101044.44
2023-02-22T20:35:07.878Z,101046.69
2023-02-22T20:37:38.775Z,101046.69
2023-02-22T20:40:07.020Z,101043.63
2023-02-22T20:42:33.938Z,101048.13
2023-02-22T20:45:04.543Z,101045.63
2023-02-22T20:47:31.983Z,101039.94
2023-02-22T20:49:59.114Z,101045.63
2023-02-22T20:52:26.140Z,101046.03
2023-02-22T20:54:56.253Z,101044.81
2023-02-22T20:57:23.417Z,101045.00
2023-02-22T20:59:50.337Z,101044.78
2023-02-22T21:02:17.251Z,101043.53
2023-02-22T21:04:44.224Z,101035.38
2023-02-22T21:07:11.268Z,101045.97
2023-02-22T21:09:38.509Z,101045.72
2023-02-22T21:12:13.242Z,101046.53
2023-02-22T21:14:41.498Z,101048.72
2023-02-22T21:17:09.115Z,101044.63
2023-02-22T21:19:36.584Z,101043.22
2023-02-22T21:22:08.097Z,101053.19
2023-02-22T21:24:36.776Z,101046.66
2023-02-22T21:27:06.685Z,101049.06
2023-02-22T21:29:35.448Z,101046.19
2023-02-22T21:32:02.812Z,101048.59
2023-02-22T21:34:29.760Z,101042.91
2023-02-22T21:36:57.573Z,101052.69
2023-02-22T21:39:28.263Z,101046.75
2023-02-22T21:42:00.102Z,101052.25
2023-02-22T21:44:28.214Z,101049.78
2023-02-22T21:46:57.101Z,101051.81
2023-02-22T21:49:24.903Z,101048.16
2023-02-22T21:51:52.492Z,101044.50
2023-02-22T21:54:20.148Z,101055.09
2023-02-22T21:56:47.784Z,101049.78
2023-02-22T21:59:18.791Z,101055.09
2023-02-22T22:01:49.749Z,101047.75
2023-02-22T22:04:22.032Z,101045.31
2023-02-22T22:06:52.169Z,101048.78
2023-02-22T22:09:20.114Z,101054.91
2023-02-22T22:11:52.074Z,101054.09
2023-02-22T22:14:21.784Z,101049.78
2023-02-22T22:16:51.473Z,101051.81
2023-02-22T22:19:20.038Z,101056.72
2023-02-22T22:21:48.668Z,101049.31
2023-02-22T22:24:15.823Z,101058.69
2023-02-22T22:26:43.938Z,101053.75
2023-02-22T22:29:11.431Z,101051.94
2023-02-22T22:31:38.656Z,101060.91
2023-02-22T22:34:05.914Z,101053.16
2023-02-22T22:36:34.668Z,101056.22
2023-02-22T22:39:02.011Z,101051.28
2023-02-22T22:41:29.072Z,101054.94
2023-02-22T22:43:56.360Z,101054.94
2023-02-22T22:46:23.794Z,101059.41
2023-02-22T22:48:50.661Z,101053.94
2023-02-22T22:51:21.243Z,101059.25
2023-02-22T22:53:51.524Z,101059.25
2023-02-22T22:56:21.505Z,101056.59
2023-02-22T22:58:50.981Z,101063.50
2023-02-22T23:01:26.605Z,101052.91
2023-02-22T23:03:56.542Z,101055.75
2023-02-22T23:06:25.968Z,101057.78
2023-02-22T23:09:00.356Z,101064.28
2023-02-22T23:11:30.247Z,101066.50
2023-02-22T23:13:57.106Z,101067.09
2023-02-22T23:16:24.731Z,101077.06
2023-02-22T23:18:51.674Z,101074.63
2023-02-22T23:21:23.666Z,101071.13
2023-02-22T23:23:54.174Z,101076.06
2023-02-22T23:26:22.477Z,101078.97
2023-02-22T23:28:49.501Z,101082.84
2023-02-22T23:31:18.025Z,101080.19
2023-02-22T23:33:50.744Z,101081.03
2023-02-22T23:36:19.621Z,101077.97
2023-02-22T23:38:46.828Z,101085.91
2023-02-22T23:41:16.487Z,101084.09
2023-02-22T23:43:46.116Z,101085.75
2023-02-22T23:46:18.448Z,101082.06
2023-02-22T23:48:51.354Z,101081.06
2023-02-22T23:51:25.304Z,101084.31
2023-02-22T23:53:55.530Z,101089.25
2023-02-22T23:56:25.219Z,101095.78
2023-02-22T23:58:57.358Z,101095.78
